Etusivu
METAR-TAF:

METAR-TAF

Lentoasemat :

Tindouf, Algeria

Leveyspiiri: 27-40N, Pituuspiiri: 008-08W, korkeus merenpinnasta: 431 m

Tämänhetkinen sää

Tämä raportti tehtiin 58 minuuttia sitten, kello 11.00 UTC
Tuuli 15 kn lännestä/luoteesta
Lämpötila 24°C
Kosteus 18%
Ilmanpaine 1015 hPa
Näkyvyys 10 km tai enemmän
ei pilviä alle 1500 m:ssä eikä cumulonimbus-pilviä

METAR: DAOF 011100Z 30015KT CAVOK 24/M02 Q1015

Aika: 12:58 (11:58 UTC)

Sääennuste

Tämä raportti tehtiin 3 tuntia ja 58 minuuttia sitten, kello 08.00 UTC
Ennuste voimassa 01. päivästä klo 09 UTC - 01. päivään klo 18 UTC
Tuuli 12 kn lännestä
Näkyvyys 10 km tai enemmän
ei pilviä alle 1500 m:ssä eikä cumulonimbus-pilviä

TAF: DAOF 010800Z 0109/0118 28012KT CAVOK

Säähavainnot ja -ennusteet yli 4000 lentoasemalta (METAR- ja TAF-raportit).

Käytössä olevat sääasemat on merkitty karttaan keltaisilla ja punaisilla pisteillä.

Aseta hiiri pisteen päälle nähdäksesi sääaseman nimen.

Klikkaa sitten nähdäksesi säähavainnot ja -ennusteet.

Kartan vaihtaminen: klikkaa mustalla rastilla varustettuja vihreitä pisteitä, niin voit zoomata sisään; viivalla varustettua vihreää pistettä, niin voit zoomata ulos tai vihreitä nuolia, niin pääset viereisille kartoille.


METAR-TAF: